sensor_id;sensor_type;location;lat;lon;timestamp;P1;durP1;ratioP1;P2;durP2;ratioP2
21927;SDS011;11128;51.096;17.190;2023-04-24T00:02:30;15.45;;;9.95;;
21927;SDS011;11128;51.096;17.190;2023-04-24T00:07:32;18.20;;;9.25;;
21927;SDS011;11128;51.096;17.190;2023-04-24T00:12:33;15.90;;;9.63;;
21927;SDS011;11128;51.096;17.190;2023-04-24T00:17:35;19.75;;;10.52;;
21927;SDS011;11128;51.096;17.190;2023-04-24T00:22:37;17.73;;;10.43;;
21927;SDS011;11128;51.096;17.190;2023-04-24T00:27:38;17.25;;;9.52;;
21927;SDS011;11128;51.096;17.190;2023-04-24T00:32:40;14.30;;;9.20;;
21927;SDS011;11128;51.096;17.190;2023-04-24T00:37:41;15.32;;;9.75;;
21927;SDS011;11128;51.096;17.190;2023-04-24T00:42:43;13.70;;;9.48;;
21927;SDS011;11128;51.096;17.190;2023-04-24T00:47:44;17.88;;;10.27;;
21927;SDS011;11128;51.096;17.190;2023-04-24T00:52:47;15.93;;;9.25;;
21927;SDS011;11128;51.096;17.190;2023-04-24T00:57:48;18.92;;;10.80;;
21927;SDS011;11128;51.096;17.190;2023-04-24T01:02:50;18.67;;;11.13;;
21927;SDS011;11128;51.096;17.190;2023-04-24T01:07:52;18.70;;;10.52;;
21927;SDS011;11128;51.096;17.190;2023-04-24T01:12:54;19.00;;;12.10;;
21927;SDS011;11128;51.096;17.190;2023-04-24T01:17:56;16.05;;;10.35;;
21927;SDS011;11128;51.096;17.190;2023-04-24T01:22:57;20.20;;;11.70;;
21927;SDS011;11128;51.096;17.190;2023-04-24T01:27:59;21.45;;;12.07;;
21927;SDS011;11128;51.096;17.190;2023-04-24T01:33:00;19.00;;;12.15;;
21927;SDS011;11128;51.096;17.190;2023-04-24T01:38:03;18.45;;;12.93;;
21927;SDS011;11128;51.096;17.190;2023-04-24T01:43:06;18.90;;;11.50;;
21927;SDS011;11128;51.096;17.190;2023-04-24T01:48:08;20.20;;;11.85;;
21927;SDS011;11128;51.096;17.190;2023-04-24T01:53:09;18.83;;;12.23;;
21927;SDS011;11128;51.096;17.190;2023-04-24T01:58:11;21.20;;;13.30;;
21927;SDS011;11128;51.096;17.190;2023-04-24T02:03:13;20.17;;;12.70;;
21927;SDS011;11128;51.096;17.190;2023-04-24T02:08:14;22.50;;;13.77;;
21927;SDS011;11128;51.096;17.190;2023-04-24T02:13:15;22.52;;;13.38;;
21927;SDS011;11128;51.096;17.190;2023-04-24T02:18:17;21.15;;;12.68;;
21927;SDS011;11128;51.096;17.190;2023-04-24T02:23:18;21.02;;;12.95;;
21927;SDS011;11128;51.096;17.190;2023-04-24T02:28:19;21.05;;;12.77;;
21927;SDS011;11128;51.096;17.190;2023-04-24T02:33:21;20.95;;;13.05;;
21927;SDS011;11128;51.096;17.190;2023-04-24T02:38:22;19.83;;;12.50;;
21927;SDS011;11128;51.096;17.190;2023-04-24T02:43:23;24.75;;;14.60;;
21927;SDS011;11128;51.096;17.190;2023-04-24T02:48:24;26.60;;;16.52;;
21927;SDS011;11128;51.096;17.190;2023-04-24T02:53:25;20.42;;;14.27;;
21927;SDS011;11128;51.096;17.190;2023-04-24T02:58:27;20.83;;;13.88;;
21927;SDS011;11128;51.096;17.190;2023-04-24T03:03:28;20.58;;;12.77;;
21927;SDS011;11128;51.096;17.190;2023-04-24T03:08:29;21.73;;;12.27;;
21927;SDS011;11128;51.096;17.190;2023-04-24T03:13:30;21.98;;;12.45;;
21927;SDS011;11128;51.096;17.190;2023-04-24T03:18:31;18.23;;;12.18;;
21927;SDS011;11128;51.096;17.190;2023-04-24T03:23:32;19.15;;;12.77;;
21927;SDS011;11128;51.096;17.190;2023-04-24T03:28:33;17.05;;;11.88;;
21927;SDS011;11128;51.096;17.190;2023-04-24T03:33:34;25.00;;;12.93;;
21927;SDS011;11128;51.096;17.190;2023-04-24T03:38:36;20.20;;;12.10;;
21927;SDS011;11128;51.096;17.190;2023-04-24T03:43:37;23.33;;;12.32;;
21927;SDS011;11128;51.096;17.190;2023-04-24T03:48:39;20.25;;;12.38;;
21927;SDS011;11128;51.096;17.190;2023-04-24T03:53:41;20.08;;;12.50;;
21927;SDS011;11128;51.096;17.190;2023-04-24T03:58:42;20.45;;;13.20;;
21927;SDS011;11128;51.096;17.190;2023-04-24T04:03:43;18.77;;;12.40;;
21927;SDS011;11128;51.096;17.190;2023-04-24T04:08:44;22.40;;;12.57;;
21927;SDS011;11128;51.096;17.190;2023-04-24T04:13:45;22.30;;;13.63;;
21927;SDS011;11128;51.096;17.190;2023-04-24T04:18:48;22.52;;;13.45;;
21927;SDS011;11128;51.096;17.190;2023-04-24T04:23:50;22.95;;;13.85;;
21927;SDS011;11128;51.096;17.190;2023-04-24T04:28:51;27.50;;;14.43;;
21927;SDS011;11128;51.096;17.190;2023-04-24T04:33:53;23.15;;;13.68;;
21927;SDS011;11128;51.096;17.190;2023-04-24T04:38:55;19.83;;;12.70;;
21927;SDS011;11128;51.096;17.190;2023-04-24T04:43:57;24.30;;;14.13;;
21927;SDS011;11128;51.096;17.190;2023-04-24T04:49:01;25.83;;;13.00;;
21927;SDS011;11128;51.096;17.190;2023-04-24T04:54:02;22.92;;;13.05;;
21927;SDS011;11128;51.096;17.190;2023-04-24T04:59:03;23.02;;;12.40;;
21927;SDS011;11128;51.096;17.190;2023-04-24T05:04:06;26.52;;;14.10;;
21927;SDS011;11128;51.096;17.190;2023-04-24T05:09:07;23.35;;;13.38;;
21927;SDS011;11128;51.096;17.190;2023-04-24T05:14:09;22.00;;;13.10;;
21927;SDS011;11128;51.096;17.190;2023-04-24T05:19:10;19.17;;;11.82;;
21927;SDS011;11128;51.096;17.190;2023-04-24T05:24:15;22.05;;;11.52;;
21927;SDS011;11128;51.096;17.190;2023-04-24T05:29:16;21.20;;;12.93;;
21927;SDS011;11128;51.096;17.190;2023-04-24T05:34:19;17.38;;;12.18;;
21927;SDS011;11128;51.096;17.190;2023-04-24T05:39:20;19.27;;;11.40;;
21927;SDS011;11128;51.096;17.190;2023-04-24T05:44:22;20.88;;;11.30;;
21927;SDS011;11128;51.096;17.190;2023-04-24T05:49:23;19.38;;;10.93;;
21927;SDS011;11128;51.096;17.190;2023-04-24T05:54:24;14.60;;;10.30;;
21927;SDS011;11128;51.096;17.190;2023-04-24T05:59:25;14.13;;;9.40;;
21927;SDS011;11128;51.096;17.190;2023-04-24T06:04:27;16.80;;;8.85;;
21927;SDS011;11128;51.096;17.190;2023-04-24T06:09:28;10.25;;;7.13;;
21927;SDS011;11128;51.096;17.190;2023-04-24T06:14:29;11.80;;;7.28;;
21927;SDS011;11128;51.096;17.190;2023-04-24T06:19:31;11.80;;;6.72;;
21927;SDS011;11128;51.096;17.190;2023-04-24T06:24:33;9.95;;;5.80;;
21927;SDS011;11128;51.096;17.190;2023-04-24T06:29:35;6.63;;;5.03;;
21927;SDS011;11128;51.096;17.190;2023-04-24T06:34:37;7.15;;;4.53;;
21927;SDS011;11128;51.096;17.190;2023-04-24T06:39:38;7.03;;;4.65;;
21927;SDS011;11128;51.096;17.190;2023-04-24T06:44:39;11.07;;;5.63;;
21927;SDS011;11128;51.096;17.190;2023-04-24T06:49:43;11.70;;;5.68;;
21927;SDS011;11128;51.096;17.190;2023-04-24T06:54:45;7.40;;;5.15;;
21927;SDS011;11128;51.096;17.190;2023-04-24T06:59:46;9.50;;;5.57;;
21927;SDS011;11128;51.096;17.190;2023-04-24T07:04:47;10.32;;;5.68;;
21927;SDS011;11128;51.096;17.190;2023-04-24T07:09:49;8.52;;;6.00;;
21927;SDS011;11128;51.096;17.190;2023-04-24T07:14:51;9.10;;;6.38;;
21927;SDS011;11128;51.096;17.190;2023-04-24T07:19:52;10.07;;;6.18;;
21927;SDS011;11128;51.096;17.190;2023-04-24T07:24:53;8.68;;;6.22;;
21927;SDS011;11128;51.096;17.190;2023-04-24T07:29:54;9.30;;;5.95;;
21927;SDS011;11128;51.096;17.190;2023-04-24T07:34:56;8.73;;;5.55;;
21927;SDS011;11128;51.096;17.190;2023-04-24T07:39:57;8.77;;;5.68;;
21927;SDS011;11128;51.096;17.190;2023-04-24T07:44:59;6.88;;;4.95;;
21927;SDS011;11128;51.096;17.190;2023-04-24T07:50:00;8.40;;;5.63;;
21927;SDS011;11128;51.096;17.190;2023-04-24T07:55:02;8.52;;;5.20;;
21927;SDS011;11128;51.096;17.190;2023-04-24T08:00:04;8.93;;;4.55;;
21927;SDS011;11128;51.096;17.190;2023-04-24T08:05:06;5.93;;;4.38;;
21927;SDS011;11128;51.096;17.190;2023-04-24T08:10:09;7.60;;;5.25;;
21927;SDS011;11128;51.096;17.190;2023-04-24T08:15:12;7.28;;;5.22;;
21927;SDS011;11128;51.096;17.190;2023-04-24T08:20:13;10.98;;;4.90;;
21927;SDS011;11128;51.096;17.190;2023-04-24T08:25:14;8.25;;;4.53;;
21927;SDS011;11128;51.096;17.190;2023-04-24T08:30:16;8.48;;;5.60;;
21927;SDS011;11128;51.096;17.190;2023-04-24T08:35:17;11.45;;;6.10;;
21927;SDS011;11128;51.096;17.190;2023-04-24T08:40:19;13.23;;;7.72;;
21927;SDS011;11128;51.096;17.190;2023-04-24T08:45:26;8.80;;;6.28;;
21927;SDS011;11128;51.096;17.190;2023-04-24T08:50:28;8.93;;;6.30;;
21927;SDS011;11128;51.096;17.190;2023-04-24T08:55:30;7.55;;;5.63;;
21927;SDS011;11128;51.096;17.190;2023-04-24T09:00:32;11.07;;;7.20;;
21927;SDS011;11128;51.096;17.190;2023-04-24T09:05:33;11.38;;;7.72;;
21927;SDS011;11128;51.096;17.190;2023-04-24T09:10:34;10.05;;;6.72;;
21927;SDS011;11128;51.096;17.190;2023-04-24T09:15:37;9.77;;;6.45;;
21927;SDS011;11128;51.096;17.190;2023-04-24T09:21:01;10.35;;;7.85;;
21927;SDS011;11128;51.096;17.190;2023-04-24T09:26:04;10.00;;;6.50;;
21927;SDS011;11128;51.096;17.190;2023-04-24T09:31:11;8.52;;;5.70;;
21927;SDS011;11128;51.096;17.190;2023-04-24T09:36:18;7.78;;;5.57;;
21927;SDS011;11128;51.096;17.190;2023-04-24T09:41:20;8.80;;;6.28;;
21927;SDS011;11128;51.096;17.190;2023-04-24T09:46:21;6.63;;;5.18;;
21927;SDS011;11128;51.096;17.190;2023-04-24T09:51:35;9.23;;;6.20;;
21927;SDS011;11128;51.096;17.190;2023-04-24T09:56:37;9.20;;;6.07;;
21927;SDS011;11128;51.096;17.190;2023-04-24T10:01:44;9.45;;;6.35;;
21927;SDS011;11128;51.096;17.190;2023-04-24T10:06:47;8.57;;;5.57;;
21927;SDS011;11128;51.096;17.190;2023-04-24T10:11:50;8.82;;;5.60;;
21927;SDS011;11128;51.096;17.190;2023-04-24T10:16:54;5.53;;;4.80;;
21927;SDS011;11128;51.096;17.190;2023-04-24T10:21:57;7.95;;;5.43;;
21927;SDS011;11128;51.096;17.190;2023-04-24T10:26:59;6.00;;;5.05;;
21927;SDS011;11128;51.096;17.190;2023-04-24T10:32:02;9.80;;;5.65;;
21927;SDS011;11128;51.096;17.190;2023-04-24T10:37:04;9.63;;;5.50;;
21927;SDS011;11128;51.096;17.190;2023-04-24T10:42:14;7.40;;;5.30;;
21927;SDS011;11128;51.096;17.190;2023-04-24T10:47:16;7.28;;;5.93;;
21927;SDS011;11128;51.096;17.190;2023-04-24T10:52:17;8.23;;;5.82;;
21927;SDS011;11128;51.096;17.190;2023-04-24T11:02:35;10.10;;;6.70;;
21927;SDS011;11128;51.096;17.190;2023-04-24T11:13:16;8.85;;;6.30;;
21927;SDS011;11128;51.096;17.190;2023-04-24T11:18:21;9.50;;;5.90;;
21927;SDS011;11128;51.096;17.190;2023-04-24T11:23:23;7.53;;;5.45;;
21927;SDS011;11128;51.096;17.190;2023-04-24T11:28:24;7.60;;;5.45;;
21927;SDS011;11128;51.096;17.190;2023-04-24T11:33:26;6.80;;;5.65;;
21927;SDS011;11128;51.096;17.190;2023-04-24T11:38:27;10.75;;;4.82;;
21927;SDS011;11128;51.096;17.190;2023-04-24T11:43:28;6.80;;;5.22;;
21927;SDS011;11128;51.096;17.190;2023-04-24T11:48:34;7.88;;;5.07;;
21927;SDS011;11128;51.096;17.190;2023-04-24T11:53:36;6.32;;;5.10;;
21927;SDS011;11128;51.096;17.190;2023-04-24T11:58:38;8.02;;;5.38;;
21927;SDS011;11128;51.096;17.190;2023-04-24T12:03:40;8.50;;;5.38;;
21927;SDS011;11128;51.096;17.190;2023-04-24T12:08:47;7.78;;;5.05;;
21927;SDS011;11128;51.096;17.190;2023-04-24T12:13:49;9.48;;;5.60;;
21927;SDS011;11128;51.096;17.190;2023-04-24T12:18:50;8.38;;;6.05;;
21927;SDS011;11128;51.096;17.190;2023-04-24T12:23:54;7.93;;;5.88;;
21927;SDS011;11128;51.096;17.190;2023-04-24T12:28:56;7.00;;;5.72;;
21927;SDS011;11128;51.096;17.190;2023-04-24T12:34:03;8.38;;;5.55;;
21927;SDS011;11128;51.096;17.190;2023-04-24T12:39:17;8.75;;;5.43;;
21927;SDS011;11128;51.096;17.190;2023-04-24T12:44:20;20.00;;;6.70;;
21927;SDS011;11128;51.096;17.190;2023-04-24T12:49:29;15.52;;;6.05;;
21927;SDS011;11128;51.096;17.190;2023-04-24T12:54:34;16.30;;;5.60;;
21927;SDS011;11128;51.096;17.190;2023-04-24T12:59:35;13.10;;;6.60;;
21927;SDS011;11128;51.096;17.190;2023-04-24T13:04:36;15.07;;;6.63;;
21927;SDS011;11128;51.096;17.190;2023-04-24T13:09:38;10.45;;;6.93;;
21927;SDS011;11128;51.096;17.190;2023-04-24T13:14:39;18.00;;;6.90;;
21927;SDS011;11128;51.096;17.190;2023-04-24T13:19:41;8.20;;;6.55;;
21927;SDS011;11128;51.096;17.190;2023-04-24T13:24:43;10.45;;;7.10;;
21927;SDS011;11128;51.096;17.190;2023-04-24T13:29:45;9.13;;;6.78;;
21927;SDS011;11128;51.096;17.190;2023-04-24T13:34:46;8.95;;;7.03;;
21927;SDS011;11128;51.096;17.190;2023-04-24T13:39:48;12.80;;;8.45;;
21927;SDS011;11128;51.096;17.190;2023-04-24T13:44:49;11.88;;;8.30;;
21927;SDS011;11128;51.096;17.190;2023-04-24T13:49:51;10.88;;;7.38;;
21927;SDS011;11128;51.096;17.190;2023-04-24T13:54:54;5.45;;;3.70;;
21927;SDS011;11128;51.096;17.190;2023-04-24T13:59:56;3.33;;;2.60;;
21927;SDS011;11128;51.096;17.190;2023-04-24T14:05:02;4.05;;;2.05;;
21927;SDS011;11128;51.096;17.190;2023-04-24T14:10:04;5.07;;;2.45;;
21927;SDS011;11128;51.096;17.190;2023-04-24T14:15:06;3.10;;;1.95;;
21927;SDS011;11128;51.096;17.190;2023-04-24T14:20:09;2.17;;;1.60;;
21927;SDS011;11128;51.096;17.190;2023-04-24T14:25:10;2.03;;;1.42;;
21927;SDS011;11128;51.096;17.190;2023-04-24T14:30:12;5.45;;;1.40;;
21927;SDS011;11128;51.096;17.190;2023-04-24T14:35:14;1.83;;;1.48;;
21927;SDS011;11128;51.096;17.190;2023-04-24T14:40:15;2.42;;;0.95;;
21927;SDS011;11128;51.096;17.190;2023-04-24T14:45:16;3.45;;;1.25;;
21927;SDS011;11128;51.096;17.190;2023-04-24T14:50:18;1.00;;;0.90;;
21927;SDS011;11128;51.096;17.190;2023-04-24T14:55:20;1.15;;;1.02;;
21927;SDS011;11128;51.096;17.190;2023-04-24T15:00:22;5.35;;;1.52;;
21927;SDS011;11128;51.096;17.190;2023-04-24T15:05:24;2.22;;;1.30;;
21927;SDS011;11128;51.096;17.190;2023-04-24T15:10:25;2.45;;;1.25;;
21927;SDS011;11128;51.096;17.190;2023-04-24T15:15:27;1.80;;;1.40;;
21927;SDS011;11128;51.096;17.190;2023-04-24T15:20:28;5.00;;;1.88;;
21927;SDS011;11128;51.096;17.190;2023-04-24T15:25:29;4.47;;;1.67;;
21927;SDS011;11128;51.096;17.190;2023-04-24T15:30:31;7.95;;;1.73;;
21927;SDS011;11128;51.096;17.190;2023-04-24T15:35:33;1.83;;;1.45;;
21927;SDS011;11128;51.096;17.190;2023-04-24T15:40:34;2.65;;;1.83;;
21927;SDS011;11128;51.096;17.190;2023-04-24T15:45:36;2.75;;;1.63;;
21927;SDS011;11128;51.096;17.190;2023-04-24T15:50:37;3.22;;;1.83;;
21927;SDS011;11128;51.096;17.190;2023-04-24T15:55:38;2.20;;;1.73;;
21927;SDS011;11128;51.096;17.190;2023-04-24T16:00:39;4.30;;;2.00;;
21927;SDS011;11128;51.096;17.190;2023-04-24T16:05:41;3.47;;;2.25;;
21927;SDS011;11128;51.096;17.190;2023-04-24T16:10:42;5.10;;;2.42;;
21927;SDS011;11128;51.096;17.190;2023-04-24T16:15:46;5.40;;;2.45;;
21927;SDS011;11128;51.096;17.190;2023-04-24T16:20:47;2.97;;;2.22;;
21927;SDS011;11128;51.096;17.190;2023-04-24T16:25:49;2.58;;;1.92;;
21927;SDS011;11128;51.096;17.190;2023-04-24T16:30:50;3.88;;;1.85;;
21927;SDS011;11128;51.096;17.190;2023-04-24T16:35:51;3.13;;;1.83;;
21927;SDS011;11128;51.096;17.190;2023-04-24T16:40:52;4.63;;;2.25;;
21927;SDS011;11128;51.096;17.190;2023-04-24T16:45:54;4.25;;;1.80;;
21927;SDS011;11128;51.096;17.190;2023-04-24T16:50:55;4.03;;;1.80;;
21927;SDS011;11128;51.096;17.190;2023-04-24T16:55:56;4.40;;;2.40;;
21927;SDS011;11128;51.096;17.190;2023-04-24T17:00:57;3.95;;;2.45;;
21927;SDS011;11128;51.096;17.190;2023-04-24T17:05:58;6.35;;;2.90;;
21927;SDS011;11128;51.096;17.190;2023-04-24T17:11:00;14.27;;;5.40;;
21927;SDS011;11128;51.096;17.190;2023-04-24T17:16:02;11.15;;;5.50;;
21927;SDS011;11128;51.096;17.190;2023-04-24T17:21:03;9.20;;;4.53;;
21927;SDS011;11128;51.096;17.190;2023-04-24T17:26:04;6.07;;;3.00;;
21927;SDS011;11128;51.096;17.190;2023-04-24T17:31:06;4.93;;;3.05;;
21927;SDS011;11128;51.096;17.190;2023-04-24T17:36:07;5.40;;;2.72;;
21927;SDS011;11128;51.096;17.190;2023-04-24T17:41:11;5.38;;;2.45;;
21927;SDS011;11128;51.096;17.190;2023-04-24T17:46:16;7.18;;;4.03;;
21927;SDS011;11128;51.096;17.190;2023-04-24T17:51:17;19.42;;;11.13;;
21927;SDS011;11128;51.096;17.190;2023-04-24T17:56:18;13.02;;;8.10;;
21927;SDS011;11128;51.096;17.190;2023-04-24T18:01:20;17.35;;;9.85;;
21927;SDS011;11128;51.096;17.190;2023-04-24T18:06:22;14.65;;;8.20;;
21927;SDS011;11128;51.096;17.190;2023-04-24T18:11:23;9.30;;;6.35;;
21927;SDS011;11128;51.096;17.190;2023-04-24T18:16:24;6.38;;;4.47;;
21927;SDS011;11128;51.096;17.190;2023-04-24T18:21:25;10.45;;;6.47;;
21927;SDS011;11128;51.096;17.190;2023-04-24T18:26:27;15.43;;;7.05;;
21927;SDS011;11128;51.096;17.190;2023-04-24T18:31:29;16.33;;;7.00;;
21927;SDS011;11128;51.096;17.190;2023-04-24T18:36:31;11.18;;;6.82;;
21927;SDS011;11128;51.096;17.190;2023-04-24T18:41:33;11.75;;;6.53;;
21927;SDS011;11128;51.096;17.190;2023-04-24T18:46:34;12.63;;;5.97;;
21927;SDS011;11128;51.096;17.190;2023-04-24T18:51:40;13.38;;;7.28;;
21927;SDS011;11128;51.096;17.190;2023-04-24T18:56:42;11.10;;;6.30;;
21927;SDS011;11128;51.096;17.190;2023-04-24T19:01:43;18.48;;;6.18;;
21927;SDS011;11128;51.096;17.190;2023-04-24T19:06:44;10.70;;;6.25;;
21927;SDS011;11128;51.096;17.190;2023-04-24T19:11:45;10.70;;;6.30;;
21927;SDS011;11128;51.096;17.190;2023-04-24T19:16:47;10.85;;;6.30;;
21927;SDS011;11128;51.096;17.190;2023-04-24T19:21:48;14.75;;;7.50;;
21927;SDS011;11128;51.096;17.190;2023-04-24T19:26:50;15.18;;;8.63;;
21927;SDS011;11128;51.096;17.190;2023-04-24T19:31:51;18.23;;;9.90;;
21927;SDS011;11128;51.096;17.190;2023-04-24T19:36:54;21.08;;;11.02;;
21927;SDS011;11128;51.096;17.190;2023-04-24T19:41:55;31.27;;;14.73;;
21927;SDS011;11128;51.096;17.190;2023-04-24T19:46:56;27.88;;;13.77;;
21927;SDS011;11128;51.096;17.190;2023-04-24T19:51:57;26.52;;;12.40;;
21927;SDS011;11128;51.096;17.190;2023-04-24T19:56:59;21.10;;;10.55;;
21927;SDS011;11128;51.096;17.190;2023-04-24T20:02:00;23.60;;;11.40;;
21927;SDS011;11128;51.096;17.190;2023-04-24T20:07:01;25.08;;;13.98;;
21927;SDS011;11128;51.096;17.190;2023-04-24T20:12:02;30.65;;;14.60;;
21927;SDS011;11128;51.096;17.190;2023-04-24T20:17:04;33.08;;;14.55;;
21927;SDS011;11128;51.096;17.190;2023-04-24T20:22:05;20.42;;;11.55;;
21927;SDS011;11128;51.096;17.190;2023-04-24T20:27:07;19.83;;;10.32;;
21927;SDS011;11128;51.096;17.190;2023-04-24T20:32:08;15.63;;;8.02;;
21927;SDS011;11128;51.096;17.190;2023-04-24T20:37:10;16.77;;;7.47;;
21927;SDS011;11128;51.096;17.190;2023-04-24T20:42:11;12.68;;;7.00;;
21927;SDS011;11128;51.096;17.190;2023-04-24T20:47:13;13.38;;;7.00;;
21927;SDS011;11128;51.096;17.190;2023-04-24T20:52:14;10.25;;;6.05;;
21927;SDS011;11128;51.096;17.190;2023-04-24T20:57:15;10.73;;;5.85;;
21927;SDS011;11128;51.096;17.190;2023-04-24T21:02:17;10.27;;;5.15;;
21927;SDS011;11128;51.096;17.190;2023-04-24T21:07:18;12.25;;;5.82;;
21927;SDS011;11128;51.096;17.190;2023-04-24T21:12:19;7.72;;;5.07;;
21927;SDS011;11128;51.096;17.190;2023-04-24T21:17:21;8.00;;;5.30;;
21927;SDS011;11128;51.096;17.190;2023-04-24T21:22:22;13.23;;;5.57;;
21927;SDS011;11128;51.096;17.190;2023-04-24T21:27:23;9.23;;;5.43;;
21927;SDS011;11128;51.096;17.190;2023-04-24T21:32:24;10.65;;;5.25;;
21927;SDS011;11128;51.096;17.190;2023-04-24T21:37:26;7.53;;;4.57;;
21927;SDS011;11128;51.096;17.190;2023-04-24T21:42:27;6.72;;;4.47;;
21927;SDS011;11128;51.096;17.190;2023-04-24T21:47:28;5.78;;;3.97;;
21927;SDS011;11128;51.096;17.190;2023-04-24T21:52:30;6.53;;;3.60;;
21927;SDS011;11128;51.096;17.190;2023-04-24T21:57:32;7.57;;;3.63;;
21927;SDS011;11128;51.096;17.190;2023-04-24T22:02:33;6.78;;;3.55;;
21927;SDS011;11128;51.096;17.190;2023-04-24T22:07:35;7.63;;;4.05;;
21927;SDS011;11128;51.096;17.190;2023-04-24T22:12:36;5.07;;;3.15;;
21927;SDS011;11128;51.096;17.190;2023-04-24T22:17:38;7.47;;;3.05;;
21927;SDS011;11128;51.096;17.190;2023-04-24T22:22:39;5.07;;;2.80;;
21927;SDS011;11128;51.096;17.190;2023-04-24T22:27:41;4.30;;;2.45;;
21927;SDS011;11128;51.096;17.190;2023-04-24T22:32:42;3.70;;;2.45;;
21927;SDS011;11128;51.096;17.190;2023-04-24T22:37:43;4.22;;;2.35;;
21927;SDS011;11128;51.096;17.190;2023-04-24T22:42:45;5.60;;;2.33;;
21927;SDS011;11128;51.096;17.190;2023-04-24T22:47:46;3.30;;;2.03;;
21927;SDS011;11128;51.096;17.190;2023-04-24T22:52:48;5.57;;;1.77;;
21927;SDS011;11128;51.096;17.190;2023-04-24T22:57:49;4.05;;;1.77;;
21927;SDS011;11128;51.096;17.190;2023-04-24T23:02:50;2.33;;;1.45;;
21927;SDS011;11128;51.096;17.190;2023-04-24T23:07:52;3.75;;;1.60;;
21927;SDS011;11128;51.096;17.190;2023-04-24T23:12:53;2.97;;;1.70;;
21927;SDS011;11128;51.096;17.190;2023-04-24T23:17:55;2.88;;;1.60;;
21927;SDS011;11128;51.096;17.190;2023-04-24T23:22:56;1.80;;;1.27;;
21927;SDS011;11128;51.096;17.190;2023-04-24T23:27:57;3.05;;;1.60;;
21927;SDS011;11128;51.096;17.190;2023-04-24T23:32:59;4.35;;;1.83;;
21927;SDS011;11128;51.096;17.190;2023-04-24T23:38:00;2.03;;;1.40;;
21927;SDS011;11128;51.096;17.190;2023-04-24T23:43:01;4.20;;;1.38;;
21927;SDS011;11128;51.096;17.190;2023-04-24T23:48:03;5.47;;;1.60;;
21927;SDS011;11128;51.096;17.190;2023-04-24T23:53:04;2.85;;;1.65;;
21927;SDS011;11128;51.096;17.190;2023-04-24T23:58:05;3.05;;;1.45;;
